Time;durP1;ratioP1;P1;durP2;ratioP2;P2;SDS_P1;SDS_P2;PMS_P1;PMS_P2;Temp;Humidity;BMP_temperature;BMP_pressure;BME280_temperature;BME280_humidity;BME280_pressure;Samples;Min_cycle;Max_cycle;Signal;HPM_P1;HPM_P2
2023/11/25 00:00:22;;;;;;;2.37;1.33;;;8.30;94.40;;;;;;5094395;28;20059;-70
2023/11/25 00:02:51;;;;;;;1.70;1.33;;;8.30;94.60;;;;;;5094352;28;20035;-70
2023/11/25 00:05:17;;;;;;;1.80;1.20;;;8.30;94.60;;;;;;5110863;28;20119;-70
2023/11/25 00:07:43;;;;;;;2.17;1.20;;;8.30;94.60;;;;;;5114483;28;20459;-70
2023/11/25 00:10:09;;;;;;;1.90;1.20;;;8.30;94.50;;;;;;5114799;28;20081;-70
2023/11/25 00:12:35;;;;;;;1.90;1.40;;;8.20;94.60;;;;;;5114578;28;20067;-69
2023/11/25 00:15:03;;;;;;;2.10;1.30;;;8.10;94.90;;;;;;5101933;28;20460;-70
2023/11/25 00:17:30;;;;;;;1.90;1.20;;;8.10;94.90;;;;;;5093995;28;20031;-70
2023/11/25 00:19:58;;;;;;;2.17;1.10;;;8.10;95.00;;;;;;5093890;28;20161;-71
2023/11/25 00:22:25;;;;;;;1.60;1.00;;;8.00;94.90;;;;;;5094204;28;20495;-70
2023/11/25 00:24:52;;;;;;;3.63;1.40;;;8.00;94.70;;;;;;5094112;28;20020;-69
2023/11/25 00:27:18;;;;;;;3.27;1.93;;;8.00;94.60;;;;;;5075999;28;20119;-70
2023/11/25 00:29:44;;;;;;;2.50;1.50;;;8.00;94.60;;;;;;5093798;28;20036;-69
2023/11/25 00:32:10;;;;;;;1.63;0.97;;;8.00;94.60;;;;;;5093654;28;20028;-69
2023/11/25 00:34:36;;;;;;;1.77;1.00;;;8.00;94.40;;;;;;5093808;28;20162;-70
2023/11/25 00:37:03;;;;;;;3.73;1.33;;;7.90;94.40;;;;;;5102834;28;20077;-69
2023/11/25 00:39:29;;;;;;;2.27;1.10;;;7.90;94.30;;;;;;5113960;28;20556;-70
2023/11/25 00:41:55;;;;;;;2.30;1.13;;;7.90;94.30;;;;;;5114115;28;20059;-70
2023/11/25 00:44:22;;;;;;;2.40;1.23;;;7.80;94.30;;;;;;5113934;28;20332;-70
2023/11/25 00:46:47;;;;;;;2.67;1.27;;;7.80;94.40;;;;;;5113617;28;20492;-69
2023/11/25 00:49:15;;;;;;;2.50;1.20;;;7.80;94.50;;;;;;5113888;28;20055;-70
2023/11/25 00:51:42;;;;;;;2.23;1.37;;;7.70;94.70;;;;;;5113855;28;20031;-70
2023/11/25 00:54:08;;;;;;;2.40;1.27;;;7.70;94.80;;;;;;5113800;28;20034;-70
2023/11/25 00:56:34;;;;;;;2.83;1.57;;;7.70;94.80;;;;;;5113819;28;20027;-70
2023/11/25 00:59:00;;;;;;;4.73;1.43;;;7.70;94.80;;;;;;5078944;28;20509;-69
2023/11/25 01:01:25;;;;;;;1.97;1.37;;;7.60;94.80;;;;;;5073026;28;20133;-69
2023/11/25 01:03:52;;;;;;;2.73;1.60;;;7.60;95.10;;;;;;5072820;28;20028;-69
2023/11/25 01:06:18;;;;;;;2.93;1.27;;;7.60;95.10;;;;;;5072895;28;20439;-69
2023/11/25 01:08:44;;;;;;;2.17;1.40;;;7.50;95.20;;;;;;5072302;28;20488;-70
2023/11/25 01:11:10;;;;;;;2.97;1.30;;;7.50;95.20;;;;;;5072732;28;20032;-70
2023/11/25 01:13:36;;;;;;;1.97;1.30;;;7.50;95.20;;;;;;5072572;28;20075;-70
2023/11/25 01:16:02;;;;;;;1.70;1.20;;;7.50;95.30;;;;;;5072825;28;20037;-69
2023/11/25 01:18:28;;;;;;;1.70;1.20;;;7.50;95.60;;;;;;5072671;28;20099;-70
2023/11/25 01:20:55;;;;;;;2.20;1.27;;;7.40;95.60;;;;;;5072570;28;20055;-70
2023/11/25 01:23:22;;;;;;;1.83;1.10;;;7.40;95.70;;;;;;5072736;28;20481;-70
2023/11/25 01:25:48;;;;;;;2.03;1.20;;;7.40;95.70;;;;;;5072778;28;20048;-69
2023/11/25 01:28:14;;;;;;;2.07;1.27;;;7.30;95.50;;;;;;5072650;28;20064;-70
2023/11/25 01:30:40;;;;;;;3.40;1.50;;;7.30;95.70;;;;;;5072502;28;20476;-70
2023/11/25 01:33:06;;;;;;;3.13;1.13;;;7.20;95.80;;;;;;5072228;28;20162;-70
2023/11/25 01:35:33;;;;;;;2.80;1.47;;;7.20;95.90;;;;;;5072930;28;20109;-70
2023/11/25 01:37:59;;;;;;;1.80;1.07;;;7.20;95.90;;;;;;5072566;28;20222;-70
2023/11/25 01:40:25;;;;;;;1.53;1.10;;;7.10;96.00;;;;;;5072247;28;20106;-70
2023/11/25 01:42:55;;;;;;;1.67;1.10;;;7.10;96.10;;;;;;5072299;28;20529;-70
2023/11/25 01:45:21;;;;;;;3.57;1.53;;;7.10;96.10;;;;;;5072547;28;20370;-69
2023/11/25 01:47:47;;;;;;;2.27;1.50;;;7.00;96.20;;;;;;5071163;28;20086;-70
2023/11/25 01:50:13;;;;;;;4.57;1.50;;;7.00;96.30;;;;;;5072428;28;20033;-69
2023/11/25 01:52:40;;;;;;;3.00;1.73;;;7.00;96.40;;;;;;5054387;28;20106;-70
2023/11/25 01:55:08;;;;;;;3.87;2.00;;;6.90;96.40;;;;;;5072251;28;20135;-70
2023/11/25 01:57:34;;;;;;;5.63;2.97;;;6.90;96.40;;;;;;5071425;28;20024;-70
2023/11/25 02:00:07;;;;;;;5.00;2.67;;;6.90;96.60;;;;;;5069346;28;20044;-70
2023/11/25 02:02:37;;;;;;;4.25;2.20;;;6.90;96.70;;;;;;5082153;28;20388;-69
2023/11/25 02:05:03;;;;;;;4.43;2.43;;;6.80;96.80;;;;;;5090955;28;20373;-70
2023/11/25 02:07:29;;;;;;;3.63;1.93;;;6.80;96.80;;;;;;5092293;28;20044;-70
2023/11/25 02:09:56;;;;;;;2.87;1.83;;;6.80;96.80;;;;;;5092330;28;20033;-69
2023/11/25 02:12:22;;;;;;;3.30;1.97;;;6.70;96.80;;;;;;5092218;28;20036;-69
2023/11/25 02:14:48;;;;;;;2.83;1.70;;;6.70;96.80;;;;;;5073723;28;20118;-69
2023/11/25 02:17:14;;;;;;;6.00;1.40;;;6.70;96.80;;;;;;5092044;28;20047;-69
2023/11/25 02:19:43;;;;;;;2.63;1.73;;;6.60;96.80;;;;;;5095127;28;20514;-69
2023/11/25 02:22:10;;;;;;;3.37;2.10;;;6.60;96.90;;;;;;5096215;28;20028;-70
2023/11/25 02:24:37;;;;;;;3.87;1.77;;;6.60;96.90;;;;;;5096184;28;20424;-70
2023/11/25 02:27:04;;;;;;;6.17;2.30;;;6.60;97.00;;;;;;5096075;28;20032;-70
2023/11/25 02:29:32;;;;;;;4.50;2.03;;;6.60;97.00;;;;;;5095941;28;20402;-69
2023/11/25 02:32:03;;;;;;;3.00;1.80;;;6.60;97.00;;;;;;5096327;28;20044;-69
2023/11/25 02:34:30;;;;;;;2.47;1.60;;;6.50;97.00;;;;;;5095916;28;20162;-69
2023/11/25 02:36:57;;;;;;;3.43;1.60;;;6.50;97.10;;;;;;5095621;28;20035;-70
2023/11/25 02:39:24;;;;;;;3.50;1.50;;;6.50;97.10;;;;;;5095654;28;20067;-69
2023/11/25 02:41:51;;;;;;;4.83;1.50;;;6.50;96.90;;;;;;5096048;28;20462;-69
2023/11/25 02:44:17;;;;;;;5.60;1.80;;;6.50;96.80;;;;;;5095502;28;20102;-70
2023/11/25 02:46:44;;;;;;;4.23;1.90;;;6.50;96.80;;;;;;5096025;28;20038;-69
2023/11/25 02:49:10;;;;;;;2.27;1.60;;;6.50;96.70;;;;;;5077732;28;20503;-69
2023/11/25 02:51:37;;;;;;;3.07;1.63;;;6.40;96.70;;;;;;5077414;28;20443;-69
2023/11/25 02:54:05;;;;;;;2.50;1.50;;;6.40;96.70;;;;;;5077533;28;20476;-69
2023/11/25 02:56:32;;;;;;;2.00;1.30;;;6.40;96.60;;;;;;5095705;28;20605;-70
2023/11/25 02:58:58;;;;;;;1.97;1.23;;;6.40;96.60;;;;;;5095874;28;20070;-69
2023/11/25 03:01:29;;;;;;;2.60;1.30;;;6.30;96.60;;;;;;5095910;28;20039;-69
2023/11/25 03:03:59;;;;;;;2.20;1.20;;;6.30;96.20;;;;;;5095596;28;20097;-70
2023/11/25 03:06:26;;;;;;;3.63;1.10;;;6.40;96.30;;;;;;5095602;28;20036;-69
2023/11/25 03:08:53;;;;;;;2.00;1.30;;;6.30;95.90;;;;;;5095281;28;20043;-70
2023/11/25 03:11:20;;;;;;;2.17;1.30;;;6.30;95.60;;;;;;5095663;28;20032;-69
2023/11/25 03:13:46;;;;;;;2.40;1.20;;;6.30;95.40;;;;;;5095082;28;20507;-70
2023/11/25 03:16:13;;;;;;;2.00;1.30;;;6.30;95.40;;;;;;5095535;28;20064;-69
2023/11/25 03:18:39;;;;;;;3.20;1.40;;;6.20;95.40;;;;;;5095268;28;20036;-69
2023/11/25 03:21:06;;;;;;;3.00;1.63;;;6.20;95.40;;;;;;5095383;28;20400;-69
2023/11/25 03:23:32;;;;;;;3.03;1.60;;;6.10;95.70;;;;;;5095345;28;20422;-70
2023/11/25 03:25:58;;;;;;;1.83;1.20;;;6.10;96.00;;;;;;5095505;28;20111;-70
2023/11/25 03:28:25;;;;;;;3.20;1.70;;;6.10;96.10;;;;;;5095234;28;20024;-69
2023/11/25 03:30:51;;;;;;;1.80;0.97;;;6.00;96.00;;;;;;5094442;28;20499;-70
2023/11/25 03:33:17;;;;;;;2.17;1.33;;;6.00;95.70;;;;;;5095421;28;20099;-70
2023/11/25 03:35:42;;;;;;;6.13;1.30;;;6.10;95.50;;;;;;5094789;28;20032;-70
2023/11/25 03:38:08;;;;;;;2.17;1.33;;;6.10;95.40;;;;;;5094662;28;20480;-70
2023/11/25 03:40:34;;;;;;;2.17;1.00;;;6.00;95.30;;;;;;5095011;28;20038;-71
2023/11/25 03:43:00;;;;;;;3.80;1.40;;;6.10;95.20;;;;;;5095058;28;20662;-70
2023/11/25 03:45:26;;;;;;;3.00;1.40;;;6.10;95.10;;;;;;5094936;28;20081;-70
2023/11/25 03:47:53;;;;;;;6.20;2.17;;;6.10;94.70;;;;;;5094794;28;20060;-70
2023/11/25 03:50:19;;;;;;;2.50;1.60;;;6.00;94.70;;;;;;5094592;28;20500;-70
2023/11/25 03:52:45;;;;;;;1.87;1.07;;;6.10;94.80;;;;;;5094529;28;20029;-69
2023/11/25 03:55:11;;;;;;;1.73;0.87;;;6.10;94.50;;;;;;5094620;28;20093;-70
2023/11/25 03:57:38;;;;;;;1.10;0.87;;;6.00;94.50;;;;;;5094540;28;20035;-70
2023/11/25 04:00:14;;;;;;;2.70;1.30;;;6.00;94.80;;;;;;5094483;28;20459;-69
2023/11/25 04:02:44;;;;;;;1.67;0.80;;;6.00;94.20;;;;;;5094484;28;20093;-70
2023/11/25 04:05:11;;;;;;;2.60;1.10;;;6.00;94.10;;;;;;5094444;28;20553;-70
2023/11/25 04:07:37;;;;;;;1.10;0.77;;;6.00;93.90;;;;;;5094153;28;20385;-70
2023/11/25 04:10:15;;;;;;;2.10;1.13;;;6.00;94.00;;;;;;5094378;28;20036;-70
2023/11/25 04:12:43;;;;;;;2.50;1.40;;;5.90;93.90;;;;;;5094363;28;20086;-71
2023/11/25 04:15:12;;;;;;;3.90;1.40;;;5.90;93.60;;;;;;5094358;28;20480;-69
2023/11/25 04:17:39;;;;;;;2.77;1.10;;;5.90;93.40;;;;;;5094313;28;20129;-69
2023/11/25 04:20:17;;;;;;;3.93;1.60;;;5.90;93.20;;;;;;5094067;28;20040;-69
2023/11/25 04:22:47;;;;;;;2.13;1.27;;;5.90;93.40;;;;;;5094233;28;20451;-69
2023/11/25 04:25:15;;;;;;;2.13;1.37;;;5.90;93.20;;;;;;5093885;28;20396;-70
2023/11/25 04:27:42;;;;;;;2.77;1.40;;;5.90;93.20;;;;;;5094101;28;20059;-69
2023/11/25 04:30:09;;;;;;;3.97;1.60;;;5.80;93.40;;;;;;5093794;28;20075;-69
2023/11/25 04:32:36;;;;;;;6.00;5.50;;;5.80;93.60;;;;;;5093988;28;20024;-69
2023/11/25 04:35:04;;;;;;;7.40;6.80;;;5.70;93.90;;;;;;5075630;28;20046;-69
2023/11/25 04:37:31;;;;;;;10.17;9.33;;;5.70;94.10;;;;;;5094174;28;20060;-69
2023/11/25 04:39:56;;;;;;;8.73;7.93;;;5.60;94.10;;;;;;5093731;28;20157;-70
2023/11/25 04:42:23;;;;;;;6.10;4.77;;;5.60;94.20;;;;;;5093815;28;20040;-69
2023/11/25 04:44:49;;;;;;;2.90;2.20;;;5.50;94.40;;;;;;5093646;28;20032;-69
2023/11/25 04:47:15;;;;;;;2.77;1.80;;;5.50;94.50;;;;;;5093918;28;20469;-70
2023/11/25 04:49:42;;;;;;;2.60;1.50;;;5.40;94.60;;;;;;5093653;28;20544;-69
2023/11/25 04:52:08;;;;;;;3.27;1.60;;;5.30;94.70;;;;;;5093738;28;20115;-70
2023/11/25 04:54:34;;;;;;;3.10;1.60;;;5.30;94.50;;;;;;5093647;28;20124;-69
2023/11/25 04:57:01;;;;;;;5.87;1.70;;;5.30;94.70;;;;;;5093213;28;20040;-69
2023/11/25 04:59:28;;;;;;;3.57;1.77;;;5.20;94.70;;;;;;5093124;28;20079;-69
2023/11/25 05:01:54;;;;;;;3.30;1.50;;;5.20;94.80;;;;;;5093510;28;20036;-69
2023/11/25 05:04:20;;;;;;;4.03;1.60;;;5.20;94.80;;;;;;5093834;28;20421;-70
2023/11/25 05:06:47;;;;;;;2.53;1.50;;;5.10;94.80;;;;;;5093429;28;20071;-69
2023/11/25 05:09:13;;;;;;;3.27;1.60;;;5.10;95.30;;;;;;5093457;28;20484;-69
2023/11/25 05:11:42;;;;;;;3.00;1.43;;;5.10;95.40;;;;;;5093395;28;20035;-70
2023/11/25 05:14:08;;;;;;;4.77;1.60;;;5.10;95.40;;;;;;5093419;28;20484;-69
2023/11/25 05:16:33;;;;;;;2.87;1.60;;;5.10;95.30;;;;;;5093115;28;20036;-70
2023/11/25 05:18:59;;;;;;;3.77;1.30;;;5.10;94.90;;;;;;5092978;28;20063;-69
2023/11/25 05:21:25;;;;;;;2.23;1.50;;;5.10;94.90;;;;;;5093043;28;20051;-69
2023/11/25 05:23:51;;;;;;;3.23;1.40;;;5.10;94.90;;;;;;5093236;28;20402;-69
2023/11/25 05:26:17;;;;;;;2.07;1.00;;;5.10;94.60;;;;;;5093252;28;20043;-69
2023/11/25 05:28:43;;;;;;;4.53;0.90;;;5.10;94.40;;;;;;5093410;28;20027;-71
2023/11/25 05:31:09;;;;;;;3.07;1.27;;;5.10;94.20;;;;;;5092907;28;20036;-70
2023/11/25 05:33:35;;;;;;;4.83;1.20;;;5.10;94.20;;;;;;5074878;28;20032;-69
2023/11/25 05:36:02;;;;;;;2.90;1.53;;;5.10;94.20;;;;;;5092660;28;20551;-70
2023/11/25 05:38:28;;;;;;;4.50;1.03;;;5.10;94.00;;;;;;5092587;28;20046;-70
2023/11/25 05:40:54;;;;;;;2.70;1.20;;;5.10;93.90;;;;;;5092703;28;20488;-70
2023/11/25 05:43:23;;;;;;;3.67;1.50;;;5.10;93.50;;;;;;5074749;28;20388;-70
2023/11/25 05:45:49;;;;;;;2.27;1.20;;;5.10;93.80;;;;;;5092962;28;20028;-70
2023/11/25 05:48:15;;;;;;;2.73;1.33;;;5.20;93.90;;;;;;5092895;28;20031;-70
2023/11/25 05:50:42;;;;;;;1.20;0.87;;;5.10;94.00;;;;;;5093069;28;20537;-70
2023/11/25 05:53:07;;;;;;;2.30;0.93;;;5.20;93.90;;;;;;5092170;28;20500;-71
2023/11/25 05:55:33;;;;;;;1.50;0.77;;;5.20;93.90;;;;;;5092654;28;20056;-70
2023/11/25 05:57:59;;;;;;;2.30;1.00;;;5.20;93.90;;;;;;5091586;28;20032;-70
2023/11/25 06:00:25;;;;;;;2.07;1.00;;;5.20;94.00;;;;;;5092375;28;20089;-70
2023/11/25 06:02:52;;;;;;;1.80;0.80;;;5.20;93.80;;;;;;5092557;28;20032;-69
2023/11/25 06:05:18;;;;;;;5.27;0.90;;;5.20;93.80;;;;;;5092718;28;20028;-70
2023/11/25 06:07:44;;;;;;;1.20;0.80;;;5.20;93.70;;;;;;5092630;28;20032;-70
2023/11/25 06:10:10;;;;;;;2.97;1.00;;;5.20;93.50;;;;;;5092579;28;20040;-70
2023/11/25 06:12:37;;;;;;;1.90;1.00;;;5.20;93.20;;;;;;5092624;28;20515;-70
2023/11/25 06:15:04;;;;;;;2.10;1.03;;;5.20;93.00;;;;;;5092731;28;20032;-70
2023/11/25 06:17:30;;;;;;;4.10;1.17;;;5.20;92.60;;;;;;5074375;28;20069;-70
2023/11/25 06:19:56;;;;;;;2.43;1.20;;;5.10;92.90;;;;;;5092539;28;20460;-69
2023/11/25 06:22:21;;;;;;;3.60;1.47;;;5.10;93.50;;;;;;5092411;28;20399;-70
2023/11/25 06:24:47;;;;;;;3.23;0.90;;;5.00;93.40;;;;;;5091930;28;20035;-69
2023/11/25 06:27:14;;;;;;;2.07;1.20;;;5.00;93.30;;;;;;5092053;28;20477;-69
2023/11/25 06:29:40;;;;;;;1.93;1.00;;;5.00;93.50;;;;;;5092077;28;20036;-69
2023/11/25 06:32:07;;;;;;;4.17;1.53;;;4.90;93.70;;;;;;5092222;28;20373;-70
2023/11/25 06:34:33;;;;;;;2.87;1.20;;;4.90;93.90;;;;;;5091017;28;20483;-69
2023/11/25 06:36:58;;;;;;;5.37;1.40;;;4.90;93.70;;;;;;5092597;28;20404;-69
2023/11/25 06:39:26;;;;;;;5.50;1.43;;;4.90;93.80;;;;;;5080985;28;20048;-69
2023/11/25 06:41:53;;;;;;;3.20;1.90;;;4.80;93.70;;;;;;5072122;28;20485;-69
2023/11/25 06:44:19;;;;;;;3.57;2.07;;;4.80;93.60;;;;;;5072022;28;20542;-69
2023/11/25 06:46:46;;;;;;;4.70;2.43;;;4.80;93.90;;;;;;5071521;28;20032;-70
2023/11/25 06:49:15;;;;;;;3.87;2.07;;;4.70;94.10;;;;;;5071790;28;20563;-70
2023/11/25 06:51:41;;;;;;;5.70;1.90;;;4.80;94.40;;;;;;5071463;28;20045;-69
2023/11/25 06:54:08;;;;;;;4.87;2.00;;;4.70;94.80;;;;;;5071570;28;20039;-70
2023/11/25 06:56:35;;;;;;;3.80;2.07;;;4.70;94.60;;;;;;5071941;28;20029;-69
2023/11/25 06:59:05;;;;;;;4.90;2.77;;;4.70;94.30;;;;;;5071960;28;20036;-69
2023/11/25 07:01:32;;;;;;;5.23;2.70;;;4.60;94.50;;;;;;5071673;28;20037;-70
2023/11/25 07:03:58;;;;;;;6.33;2.90;;;4.60;95.10;;;;;;5071691;28;20044;-70
2023/11/25 07:06:24;;;;;;;5.80;3.20;;;4.60;95.20;;;;;;5073620;28;20041;-70
2023/11/25 07:08:49;;;;;;;10.23;4.93;;;4.60;94.90;;;;;;5075311;28;20500;-69
2023/11/25 07:11:16;;;;;;;8.83;4.93;;;4.60;95.00;;;;;;5075474;28;20087;-69
2023/11/25 07:13:42;;;;;;;9.67;3.80;;;4.60;95.10;;;;;;5075023;28;20049;-69
2023/11/25 07:16:11;;;;;;;5.37;3.13;;;4.60;94.90;;;;;;5064798;28;20540;-69
2023/11/25 07:18:42;;;;;;;4.70;2.67;;;4.60;94.90;;;;;;5055232;28;20091;-69
2023/11/25 07:21:11;;;;;;;7.70;4.00;;;4.60;94.70;;;;;;5065066;28;20131;-69
2023/11/25 07:23:38;;;;;;;5.10;2.70;;;4.70;94.90;;;;;;5074803;28;20028;-70
2023/11/25 07:26:05;;;;;;;10.10;3.97;;;4.70;94.90;;;;;;5074550;28;20033;-69
2023/11/25 07:28:32;;;;;;;13.10;7.50;;;4.70;95.00;;;;;;5074794;28;20435;-70
2023/11/25 07:31:01;;;;;;;12.47;7.77;;;4.70;95.00;;;;;;5074482;28;20033;-69
2023/11/25 07:33:27;;;;;;;10.70;5.43;;;4.70;95.40;;;;;;5074619;28;20082;-69
2023/11/25 07:35:53;;;;;;;9.17;5.50;;;4.80;95.40;;;;;;5074722;28;20020;-69
2023/11/25 07:38:19;;;;;;;6.87;3.87;;;4.90;95.30;;;;;;5074669;28;20569;-69
2023/11/25 07:40:44;;;;;;;5.17;3.10;;;4.90;95.20;;;;;;5074406;28;20043;-69
2023/11/25 07:43:10;;;;;;;7.80;4.27;;;5.00;95.20;;;;;;5074524;28;20025;-69
2023/11/25 07:45:36;;;;;;;16.50;9.70;;;5.10;95.30;;;;;;5074700;28;20033;-71
2023/11/25 07:48:03;;;;;;;14.03;7.67;;;5.10;95.10;;;;;;5074346;28;20078;-69
2023/11/25 07:50:28;;;;;;;9.10;5.57;;;5.20;95.10;;;;;;5074650;28;20032;-69
2023/11/25 07:52:54;;;;;;;10.30;5.30;;;5.30;95.20;;;;;;5073079;28;20032;-69
2023/11/25 07:55:20;;;;;;;26.47;15.47;;;5.30;95.00;;;;;;5074440;28;20032;-69
2023/11/25 07:57:49;;;;;;;21.70;12.63;;;5.30;94.60;;;;;;5074325;28;20033;-69
2023/11/25 08:00:16;;;;;;;12.07;8.00;;;5.40;94.70;;;;;;5074243;28;20041;-70
2023/11/25 08:02:43;;;;;;;9.27;5.33;;;5.40;94.30;;;;;;5056043;28;20060;-69
2023/11/25 08:05:10;;;;;;;4.73;2.73;;;5.50;94.30;;;;;;5074018;28;20481;-69
2023/11/25 08:07:37;;;;;;;3.43;2.30;;;5.50;94.50;;;;;;5073557;28;20052;-69
2023/11/25 08:10:04;;;;;;;6.27;2.60;;;5.60;94.70;;;;;;5073379;28;20036;-70
2023/11/25 08:12:30;;;;;;;5.87;2.70;;;5.60;94.50;;;;;;5073621;28;20060;-69
2023/11/25 08:14:56;;;;;;;6.10;3.00;;;5.70;94.30;;;;;;5073829;28;20071;-69
2023/11/25 08:17:22;;;;;;;2.30;1.60;;;5.70;94.20;;;;;;5073689;28;20488;-69
2023/11/25 08:19:49;;;;;;;2.07;1.07;;;5.80;93.70;;;;;;5073701;28;20041;-69
2023/11/25 08:22:16;;;;;;;1.07;0.60;;;5.90;91.80;;;;;;5073611;28;20052;-69
2023/11/25 08:24:42;;;;;;;2.10;0.80;;;6.00;88.80;;;;;;5073917;28;20081;-69
2023/11/25 08:27:08;;;;;;;0.90;0.60;;;6.10;85.00;;;;;;5073593;28;20433;-69
2023/11/25 08:29:35;;;;;;;3.47;0.47;;;6.20;82.70;;;;;;5073652;28;20036;-70
2023/11/25 08:32:01;;;;;;;1.70;0.40;;;6.30;78.10;;;;;;5073648;28;20055;-71
2023/11/25 08:34:26;;;;;;;0.53;0.30;;;6.40;76.40;;;;;;5073826;28;20040;-69
2023/11/25 08:36:52;;;;;;;1.27;0.50;;;6.50;74.60;;;;;;5073407;28;20044;-69
2023/11/25 08:39:22;;;;;;;1.13;0.40;;;6.60;72.60;;;;;;5073374;28;20044;-69
2023/11/25 08:41:50;;;;;;;1.07;0.40;;;6.70;70.80;;;;;;5071231;28;20044;-68
2023/11/25 08:44:15;;;;;;;1.50;0.30;;;6.80;70.00;;;;;;5070595;28;20785;-69
2023/11/25 08:46:44;;;;;;;0.87;0.40;;;6.90;68.70;;;;;;5070046;28;20041;-68
2023/11/25 08:49:13;;;;;;;0.37;0.20;;;7.00;68.40;;;;;;5073089;28;20195;-76
2023/11/25 08:51:49;;;;;;;0.83;0.27;;;7.10;66.30;;;;;;5073544;28;20028;-70
2023/11/25 08:54:17;;;;;;;2.73;0.20;;;7.20;65.60;;;;;;5073378;28;20031;-70
2023/11/25 08:56:46;;;;;;;4.30;0.10;;;7.20;64.00;;;;;;5070860;28;20056;-69
2023/11/25 08:59:20;;;;;;;0.60;0.30;;;7.30;63.30;;;;;;5070443;28;20055;-69
2023/11/25 09:01:47;;;;;;;0.50;0.20;;;7.40;64.30;;;;;;5070330;28;20024;-69
2023/11/25 09:04:19;;;;;;;0.60;0.10;;;7.50;61.10;;;;;;5069055;28;20108;-69
2023/11/25 09:06:48;;;;;;;0.53;0.40;;;7.50;61.00;;;;;;5051943;28;20036;-69
2023/11/25 09:09:19;;;;;;;1.80;0.10;;;7.60;60.60;;;;;;5052634;28;20123;-69
2023/11/25 09:11:46;;;;;;;0.33;0.10;;;7.70;59.70;;;;;;5071008;28;20099;-69
2023/11/25 09:14:12;;;;;;;0.70;0.23;;;7.70;60.40;;;;;;5071934;28;20396;-69
2023/11/25 09:16:38;;;;;;;0.80;0.20;;;7.80;59.80;;;;;;5072899;28;20024;-69
2023/11/25 09:19:04;;;;;;;0.50;0.20;;;7.80;58.30;;;;;;5072700;28;20499;-70
2023/11/25 09:21:30;;;;;;;0.30;0.20;;;7.80;58.20;;;;;;5072080;28;20047;-70
2023/11/25 09:23:56;;;;;;;1.23;0.43;;;7.90;57.40;;;;;;5071787;28;20528;-70
2023/11/25 09:26:24;;;;;;;1.40;0.37;;;8.00;57.10;;;;;;5072760;28;20033;-70
2023/11/25 09:28:50;;;;;;;2.67;0.40;;;8.00;57.30;;;;;;5072188;28;20028;-69
2023/11/25 09:31:19;;;;;;;5.70;0.30;;;8.00;58.10;;;;;;5072770;28;20079;-71
2023/11/25 09:33:45;;;;;;;1.07;0.30;;;8.10;58.90;;;;;;5054942;28;20496;-69
2023/11/25 09:36:12;;;;;;;1.00;0.30;;;8.10;59.70;;;;;;5072683;28;20033;-69
2023/11/25 09:38:38;;;;;;;0.60;0.30;;;8.10;59.90;;;;;;5072490;28;20025;-70
2023/11/25 09:41:05;;;;;;;0.50;0.20;;;8.10;60.00;;;;;;5072809;28;20036;-69
2023/11/25 09:43:31;;;;;;;0.80;0.30;;;8.10;60.30;;;;;;5073079;28;20037;-69
2023/11/25 09:45:58;;;;;;;0.40;0.20;;;8.10;61.00;;;;;;5073019;28;20028;-69
2023/11/25 09:48:24;;;;;;;0.53;0.40;;;8.10;61.30;;;;;;5072842;28;20040;-70
2023/11/25 09:50:53;;;;;;;1.00;0.20;;;8.20;61.60;;;;;;5070847;28;20025;-69
2023/11/25 09:53:27;;;;;;;0.60;0.30;;;8.20;61.10;;;;;;5070557;28;20488;-69
2023/11/25 09:56:04;;;;;;;0.40;0.23;;;8.20;61.00;;;;;;5070714;28;20107;-70
2023/11/25 09:58:34;;;;;;;0.60;0.40;;;8.30;60.40;;;;;;5070656;28;20037;-70
2023/11/25 10:01:00;;;;;;;0.73;0.30;;;8.30;59.30;;;;;;5070667;28;20067;-70
2023/11/25 10:03:31;;;;;;;2.67;0.50;;;8.40;58.30;;;;;;5071158;28;20507;-70
2023/11/25 10:05:58;;;;;;;0.60;0.40;;;8.40;59.00;;;;;;5072217;28;20028;-70
2023/11/25 10:08:24;;;;;;;0.77;0.40;;;8.40;59.40;;;;;;5072510;28;20408;-70
2023/11/25 10:11:07;;;;;;;0.33;0.20;;;8.50;59.80;;;;;;5072513;28;20046;-69
2023/11/25 10:13:44;;;;;;;2.80;0.40;;;8.50;56.00;;;;;;5078066;23;20147;-69
2023/11/25 10:16:10;;;;;;;1.23;0.30;;;8.60;55.80;;;;;;5072563;28;20083;-70
2023/11/25 10:18:37;;;;;;;0.80;0.43;;;8.60;57.70;;;;;;5072658;28;20020;-70
2023/11/25 10:21:05;;;;;;;1.67;0.30;;;8.70;58.10;;;;;;5072391;28;20091;-69
2023/11/25 10:23:32;;;;;;;1.70;0.80;;;8.80;57.40;;;;;;5072796;28;20128;-69
2023/11/25 10:26:03;;;;;;;1.50;0.20;;;8.80;57.20;;;;;;5054660;28;20037;-69
2023/11/25 10:28:33;;;;;;;0.30;0.20;;;8.90;55.70;;;;;;5072443;28;20476;-69
2023/11/25 10:31:08;;;;;;;1.07;0.30;;;8.90;55.80;;;;;;5072424;28;20040;-69
2023/11/25 10:33:36;;;;;;;2.53;0.40;;;9.00;54.10;;;;;;5072055;28;20056;-69
2023/11/25 10:36:03;;;;;;;1.07;0.60;;;9.10;49.60;;;;;;5072175;28;20078;-69
2023/11/25 10:38:29;;;;;;;0.30;0.20;;;9.10;50.80;;;;;;5071987;28;20032;-70
2023/11/25 10:41:05;;;;;;;0.87;0.40;;;9.20;50.30;;;;;;5075202;28;20044;-70
2023/11/25 10:43:32;;;;;;;0.70;0.30;;;9.30;49.70;;;;;;5076015;28;20081;-69
2023/11/25 10:46:09;;;;;;;0.60;0.20;;;9.30;48.90;;;;;;5075915;28;20032;-69
2023/11/25 10:48:38;;;;;;;0.73;0.33;;;9.40;49.70;;;;;;5075786;28;20032;-69
2023/11/25 10:51:10;;;;;;;1.33;0.50;;;9.40;47.00;;;;;;5075709;28;20040;-69
2023/11/25 10:53:37;;;;;;;0.50;0.30;;;9.40;47.00;;;;;;5075955;28;20036;-70
2023/11/25 10:56:04;;;;;;;0.60;0.20;;;9.40;47.10;;;;;;5076035;28;20028;-69
2023/11/25 10:58:30;;;;;;;0.20;0.20;;;9.50;48.60;;;;;;5075582;28;20044;-69
2023/11/25 11:00:57;;;;;;;1.43;0.30;;;9.50;47.70;;;;;;5075755;28;20508;-69
2023/11/25 11:04:03;;;;;;;0.47;0.20;;;9.60;47.90;;;;;;5075858;28;20036;-69
2023/11/25 11:06:47;;;;;;;3.70;0.30;;;9.60;46.60;;;;;;5075909;28;20040;-70
2023/11/25 11:09:19;;;;;;;0.30;0.20;;;9.70;48.00;;;;;;5075810;28;20059;-70
2023/11/25 11:11:53;;;;;;;0.43;0.20;;;9.70;47.30;;;;;;5075661;28;20074;-70
2023/11/25 11:14:23;;;;;;;1.13;0.30;;;9.70;48.80;;;;;;5075168;28;20185;-70
2023/11/25 11:17:00;;;;;;;0.17;0.13;;;9.80;47.80;;;;;;5075332;28;20039;-70
2023/11/25 11:19:46;;;;;;;0.47;0.20;;;9.80;46.50;;;;;;5075345;28;20029;-69
2023/11/25 11:22:13;;;;;;;1.33;0.40;;;9.80;45.20;;;;;;5075695;28;20036;-69
2023/11/25 11:25:08;;;;;;;0.80;0.30;;;9.80;46.20;;;;;;5075278;28;20374;-70
2023/11/25 11:28:15;;;;;;;1.13;0.30;;;9.80;45.30;;;;;;5075500;28;20104;-70
2023/11/25 11:31:21;;;;;;;0.83;0.30;;;9.80;44.00;;;;;;5060955;28;20483;-69
2023/11/25 11:33:47;;;;;;;0.80;0.30;;;9.70;44.40;;;;;;5075155;28;20064;-70
2023/11/25 11:36:23;;;;;;;0.80;0.50;;;9.70;45.50;;;;;;5057214;28;20071;-69
2023/11/25 11:38:52;;;;;;;0.67;0.20;;;9.70;44.60;;;;;;5075144;28;20036;-69
2023/11/25 11:41:21;;;;;;;0.70;0.40;;;9.70;44.10;;;;;;5074999;28;20048;-70
2023/11/25 11:44:07;;;;;;;0.73;0.40;;;9.70;43.90;;;;;;5075055;28;20028;-70
2023/11/25 11:46:38;;;;;;;0.67;0.40;;;9.70;43.50;;;;;;5075052;28;20040;-69
2023/11/25 11:49:10;;;;;;;1.07;0.50;;;9.70;43.60;;;;;;5074963;28;20058;-69
2023/11/25 11:51:36;;;;;;;5.43;0.40;;;9.70;42.20;;;;;;5088833;28;20075;-69
2023/11/25 11:54:20;;;;;;;3.30;0.10;;;9.80;43.60;;;;;;5094833;28;20063;-70
2023/11/25 11:57:07;;;;;;;1.77;0.70;;;9.80;42.80;;;;;;5094877;28;20479;-69
2023/11/25 12:00:15;;;;;;;0.77;0.33;;;9.90;42.30;;;;;;5086979;28;20028;-69
2023/11/25 12:02:42;;;;;;;0.97;0.47;;;9.90;41.40;;;;;;5094303;28;20059;-70
2023/11/25 12:05:14;;;;;;;2.40;0.43;;;9.90;40.40;;;;;;5094444;28;20092;-69
2023/11/25 12:07:40;;;;;;;0.30;0.20;;;9.90;40.10;;;;;;5094772;28;20494;-69
2023/11/25 12:10:06;;;;;;;1.07;0.50;;;9.90;41.20;;;;;;5094737;28;20071;-70
2023/11/25 12:12:39;;;;;;;1.33;0.67;;;9.90;42.50;;;;;;5093511;28;20067;-70
2023/11/25 12:15:07;;;;;;;0.53;0.37;;;10.00;43.00;;;;;;5091804;28;20051;-70
2023/11/25 12:17:33;;;;;;;1.13;0.30;;;10.00;42.10;;;;;;5091762;28;20676;-70
2023/11/25 12:20:00;;;;;;;1.77;0.90;;;10.10;42.20;;;;;;5093818;28;20032;-70
2023/11/25 12:22:26;;;;;;;0.50;0.27;;;10.10;43.70;;;;;;5094587;28;20149;-69
2023/11/25 12:24:52;;;;;;;0.10;0.10;;;10.10;41.70;;;;;;5094464;28;20154;-69
2023/11/25 12:27:19;;;;;;;0.40;0.20;;;10.10;40.00;;;;;;5093868;28;20043;-69
2023/11/25 12:29:49;;;;;;;1.33;0.30;;;10.10;40.60;;;;;;5093945;28;20040;-69
2023/11/25 12:32:15;;;;;;;0.30;0.20;;;10.20;42.40;;;;;;5093911;28;20031;-69
2023/11/25 12:34:41;;;;;;;0.70;0.30;;;10.20;43.30;;;;;;5093965;28;20401;-70
2023/11/25 12:37:07;;;;;;;0.20;0.20;;;10.20;42.90;;;;;;5094086;28;20448;-70
2023/11/25 12:39:41;;;;;;;0.57;0.20;;;10.20;40.50;;;;;;5090753;28;20051;-69
2023/11/25 12:42:08;;;;;;;0.87;0.30;;;10.20;40.50;;;;;;5091107;28;20063;-70
2023/11/25 12:44:50;;;;;;;1.10;0.50;;;10.20;41.20;;;;;;5091748;28;20032;-70
2023/11/25 12:47:16;;;;;;;2.45;1.17;;;10.20;41.90;;;;;;5093458;28;20448;-69
2023/11/25 12:49:44;;;;;;;0.60;0.30;;;10.20;41.40;;;;;;5093771;28;20047;-69
2023/11/25 12:52:22;;;;;;;1.40;0.67;;;10.30;42.50;;;;;;5093645;28;20082;-70
2023/11/25 12:54:52;;;;;;;1.70;0.60;;;10.20;41.20;;;;;;5093369;28;20032;-70
2023/11/25 12:57:24;;;;;;;0.60;0.40;;;10.20;41.60;;;;;;5093400;28;20035;-69
2023/11/25 12:59:50;;;;;;;0.63;0.30;;;10.20;42.00;;;;;;5093349;28;20040;-69